Asahimaru No15 — JI3603 — position and weather

sailwx.info

Track history (hours):
 
Tides and Currents Weather Stations Pressure Air Temp Water Temp Dewpoint Dewpoint Depression Visibility Wind Speed Wind Dir Waves Ship Positions

Asahimaru No15

Last reported at 2017-Nov-24 14:21 UTC. Time now 2017-Nov-24 14:53 UTC.
Position N 34°37' E 135°25'.

Length 76 m.

Type: Cargo ship. MMSI: 431300392.

Date/timePositionNaut miles runAvg speedWind from/ knotsBaromVisibWave heightAir tempDewpointWater temp
2017-Nov-24 14:21N 34°37' E 135°25'0 0.0
2017-Nov-24 13:42N 34°37' E 135°25'0 0.0
2017-Nov-24 12:51N 34°37' E 135°25'0 0.0
2017-Nov-23 23:22N 34°37' E 135°25'0 1.2
2017-Nov-23 22:58N 34°37' E 135°25'2 0.6
2017-Nov-23 20:08N 34°37' E 135°23'6 3.8
2017-Nov-23 18:30N 34°35' E 135°16'  
2017-Nov-18 12:02N 34°36' E 135°05'012.1
2017-Nov-18 12:00N 34°36' E 135°05'713.2
2017-Nov-18 11:30N 34°36' E 135°13'712.9
2017-Nov-18 10:59N 34°37' E 135°21'1 0.1
2017-Nov-17 21:24N 34°37' E 135°23'2 4.4
2017-Nov-17 20:57N 34°36' E 135°21'613.0
2017-Nov-17 20:29N 34°35' E 135°14'  
Track history (hours):
 
Tides and Currents Weather Stations Pressure Air Temp Water Temp Dewpoint Dewpoint Depression Visibility Wind Speed Wind Dir Waves Ship Positions

Asahimaru No15

Last reported at 2017-Nov-24 14:21 UTC. Time now 2017-Nov-24 14:54 UTC.
Position N 34°37' E 135°25'.

Length 76 m.

Type: Cargo ship. MMSI: 431300392.

Date/timePositionNaut miles runAvg speedWind from/ knotsBaromVisibWave heightAir tempDewpointWater temp
2017-Nov-24 14:21N 34°37' E 135°25'0 0.0
2017-Nov-24 13:42N 34°37' E 135°25'0 0.0
2017-Nov-24 12:51N 34°37' E 135°25'0 0.0
2017-Nov-23 23:22N 34°37' E 135°25'0 1.2
2017-Nov-23 22:58N 34°37' E 135°25'2 0.6
2017-Nov-23 20:08N 34°37' E 135°23'6 3.8
2017-Nov-23 18:30N 34°35' E 135°16'  
2017-Nov-18 12:02N 34°36' E 135°05'012.1
2017-Nov-18 12:00N 34°36' E 135°05'713.2
2017-Nov-18 11:30N 34°36' E 135°13'712.9
2017-Nov-18 10:59N 34°37' E 135°21'1 0.1
2017-Nov-17 21:24N 34°37' E 135°23'2 4.4
2017-Nov-17 20:57N 34°36' E 135°21'613.0
2017-Nov-17 20:29N 34°35' E 135°14'  

Dump ship's entire track history